sensor_id;sensor_type;location;lat;lon;timestamp;P1;durP1;ratioP1;P2;durP2;ratioP2
1308;SDS011;647;48.840;9.314;2022-12-07T00:00:04;65.22;;;10.38;;
1308;SDS011;647;48.840;9.314;2022-12-07T00:02:32;66.32;;;10.25;;
1308;SDS011;647;48.840;9.314;2022-12-07T00:05:00;70.20;;;10.70;;
1308;SDS011;647;48.840;9.314;2022-12-07T00:07:27;68.93;;;11.82;;
1308;SDS011;647;48.840;9.314;2022-12-07T00:09:54;67.10;;;10.55;;
1308;SDS011;647;48.840;9.314;2022-12-07T00:12:21;66.53;;;10.60;;
1308;SDS011;647;48.840;9.314;2022-12-07T00:14:49;69.30;;;11.95;;
1308;SDS011;647;48.840;9.314;2022-12-07T00:17:16;66.82;;;10.73;;
1308;SDS011;647;48.840;9.314;2022-12-07T00:19:43;64.40;;;9.70;;
1308;SDS011;647;48.840;9.314;2022-12-07T00:22:11;67.45;;;11.45;;
1308;SDS011;647;48.840;9.314;2022-12-07T00:24:38;67.07;;;11.05;;
1308;SDS011;647;48.840;9.314;2022-12-07T00:27:05;67.65;;;11.43;;
1308;SDS011;647;48.840;9.314;2022-12-07T00:29:32;69.40;;;12.50;;
1308;SDS011;647;48.840;9.314;2022-12-07T00:32:02;67.43;;;11.23;;
1308;SDS011;647;48.840;9.314;2022-12-07T00:34:29;68.75;;;10.40;;
1308;SDS011;647;48.840;9.314;2022-12-07T00:36:56;65.47;;;10.25;;
1308;SDS011;647;48.840;9.314;2022-12-07T00:39:24;67.28;;;11.13;;
1308;SDS011;647;48.840;9.314;2022-12-07T00:41:51;65.82;;;9.98;;
1308;SDS011;647;48.840;9.314;2022-12-07T00:44:19;68.03;;;11.40;;
1308;SDS011;647;48.840;9.314;2022-12-07T00:46:46;68.03;;;11.27;;
1308;SDS011;647;48.840;9.314;2022-12-07T00:49:13;66.95;;;11.05;;
1308;SDS011;647;48.840;9.314;2022-12-07T00:51:40;66.40;;;10.48;;
1308;SDS011;647;48.840;9.314;2022-12-07T00:54:07;66.85;;;11.50;;
1308;SDS011;647;48.840;9.314;2022-12-07T00:56:35;66.32;;;10.63;;
1308;SDS011;647;48.840;9.314;2022-12-07T00:59:03;67.20;;;11.52;;
1308;SDS011;647;48.840;9.314;2022-12-07T01:01:31;68.70;;;12.13;;
1308;SDS011;647;48.840;9.314;2022-12-07T01:03:59;65.55;;;10.70;;
1308;SDS011;647;48.840;9.314;2022-12-07T01:06:26;66.05;;;10.63;;
1308;SDS011;647;48.840;9.314;2022-12-07T01:08:53;68.85;;;9.95;;
1308;SDS011;647;48.840;9.314;2022-12-07T01:11:21;66.28;;;11.20;;
1308;SDS011;647;48.840;9.314;2022-12-07T01:13:50;67.78;;;11.60;;
1308;SDS011;647;48.840;9.314;2022-12-07T01:16:18;70.75;;;11.50;;
1308;SDS011;647;48.840;9.314;2022-12-07T01:18:46;64.88;;;9.85;;
1308;SDS011;647;48.840;9.314;2022-12-07T01:21:14;64.22;;;9.98;;
1308;SDS011;647;48.840;9.314;2022-12-07T01:23:42;67.57;;;10.27;;
1308;SDS011;647;48.840;9.314;2022-12-07T01:26:10;67.65;;;11.38;;
1308;SDS011;647;48.840;9.314;2022-12-07T01:28:37;66.10;;;10.68;;
1308;SDS011;647;48.840;9.314;2022-12-07T01:31:06;65.13;;;10.60;;
1308;SDS011;647;48.840;9.314;2022-12-07T01:33:35;66.65;;;11.25;;
1308;SDS011;647;48.840;9.314;2022-12-07T01:36:03;66.95;;;11.32;;
1308;SDS011;647;48.840;9.314;2022-12-07T01:38:30;65.85;;;10.55;;
1308;SDS011;647;48.840;9.314;2022-12-07T01:40:57;68.28;;;11.45;;
1308;SDS011;647;48.840;9.314;2022-12-07T01:43:26;67.47;;;10.95;;
1308;SDS011;647;48.840;9.314;2022-12-07T01:45:53;67.13;;;11.40;;
1308;SDS011;647;48.840;9.314;2022-12-07T01:48:22;66.72;;;10.43;;
1308;SDS011;647;48.840;9.314;2022-12-07T01:50:51;69.20;;;11.60;;
1308;SDS011;647;48.840;9.314;2022-12-07T01:53:19;66.95;;;11.02;;
1308;SDS011;647;48.840;9.314;2022-12-07T01:55:47;68.07;;;11.57;;
1308;SDS011;647;48.840;9.314;2022-12-07T01:58:16;66.75;;;11.10;;
1308;SDS011;647;48.840;9.314;2022-12-07T02:00:43;67.57;;;11.32;;
1308;SDS011;647;48.840;9.314;2022-12-07T02:03:11;67.28;;;11.77;;
1308;SDS011;647;48.840;9.314;2022-12-07T02:05:42;67.70;;;12.00;;
1308;SDS011;647;48.840;9.314;2022-12-07T02:08:10;68.47;;;12.93;;
1308;SDS011;647;48.840;9.314;2022-12-07T02:10:39;69.47;;;12.00;;
1308;SDS011;647;48.840;9.314;2022-12-07T02:13:08;67.30;;;12.48;;
1308;SDS011;647;48.840;9.314;2022-12-07T02:15:43;71.63;;;11.95;;
1308;SDS011;647;48.840;9.314;2022-12-07T02:18:14;71.20;;;11.65;;
1308;SDS011;647;48.840;9.314;2022-12-07T02:20:45;70.68;;;12.52;;
1308;SDS011;647;48.840;9.314;2022-12-07T02:26:02;67.53;;;11.50;;
1308;SDS011;647;48.840;9.314;2022-12-07T02:31:10;69.85;;;12.68;;
1308;SDS011;647;48.840;9.314;2022-12-07T02:33:40;69.65;;;12.43;;
1308;SDS011;647;48.840;9.314;2022-12-07T02:36:10;66.38;;;11.35;;
1308;SDS011;647;48.840;9.314;2022-12-07T02:38:38;69.55;;;12.13;;
1308;SDS011;647;48.840;9.314;2022-12-07T02:41:07;71.32;;;12.50;;
1308;SDS011;647;48.840;9.314;2022-12-07T02:43:38;70.95;;;12.00;;
1308;SDS011;647;48.840;9.314;2022-12-07T02:46:07;68.03;;;11.30;;
1308;SDS011;647;48.840;9.314;2022-12-07T02:48:36;69.38;;;11.85;;
1308;SDS011;647;48.840;9.314;2022-12-07T02:51:05;70.30;;;11.88;;
1308;SDS011;647;48.840;9.314;2022-12-07T02:53:32;75.22;;;14.40;;
1308;SDS011;647;48.840;9.314;2022-12-07T02:56:01;71.22;;;13.88;;
1308;SDS011;647;48.840;9.314;2022-12-07T02:58:32;70.88;;;13.20;;
1308;SDS011;647;48.840;9.314;2022-12-07T03:01:03;69.95;;;13.27;;
1308;SDS011;647;48.840;9.314;2022-12-07T03:03:31;71.70;;;13.73;;
1308;SDS011;647;48.840;9.314;2022-12-07T03:06:06;68.82;;;12.38;;
1308;SDS011;647;48.840;9.314;2022-12-07T03:08:39;70.10;;;13.73;;
1308;SDS011;647;48.840;9.314;2022-12-07T03:11:10;72.38;;;13.82;;
1308;SDS011;647;48.840;9.314;2022-12-07T03:13:39;71.60;;;13.57;;
1308;SDS011;647;48.840;9.314;2022-12-07T03:16:08;71.63;;;14.60;;
1308;SDS011;647;48.840;9.314;2022-12-07T03:18:37;74.13;;;14.07;;
1308;SDS011;647;48.840;9.314;2022-12-07T03:21:08;71.18;;;13.68;;
1308;SDS011;647;48.840;9.314;2022-12-07T03:23:37;69.90;;;12.05;;
1308;SDS011;647;48.840;9.314;2022-12-07T03:26:05;70.43;;;13.18;;
1308;SDS011;647;48.840;9.314;2022-12-07T03:28:36;69.95;;;13.13;;
1308;SDS011;647;48.840;9.314;2022-12-07T03:31:06;70.72;;;12.05;;
1308;SDS011;647;48.840;9.314;2022-12-07T03:33:38;68.15;;;11.95;;
1308;SDS011;647;48.840;9.314;2022-12-07T03:36:09;69.10;;;11.85;;
1308;SDS011;647;48.840;9.314;2022-12-07T03:38:39;69.20;;;11.82;;
1308;SDS011;647;48.840;9.314;2022-12-07T03:41:08;70.10;;;13.40;;
1308;SDS011;647;48.840;9.314;2022-12-07T03:43:36;70.50;;;12.73;;
1308;SDS011;647;48.840;9.314;2022-12-07T03:46:06;68.55;;;12.23;;
1308;SDS011;647;48.840;9.314;2022-12-07T03:48:35;69.85;;;13.35;;
1308;SDS011;647;48.840;9.314;2022-12-07T03:51:06;68.97;;;12.15;;
1308;SDS011;647;48.840;9.314;2022-12-07T03:53:36;69.38;;;12.70;;
1308;SDS011;647;48.840;9.314;2022-12-07T03:56:04;70.13;;;11.65;;
1308;SDS011;647;48.840;9.314;2022-12-07T03:58:31;67.85;;;11.18;;
1308;SDS011;647;48.840;9.314;2022-12-07T04:00:59;68.07;;;12.35;;
1308;SDS011;647;48.840;9.314;2022-12-07T04:03:26;66.95;;;11.68;;
1308;SDS011;647;48.840;9.314;2022-12-07T04:05:53;68.88;;;11.02;;
1308;SDS011;647;48.840;9.314;2022-12-07T04:08:21;69.65;;;11.25;;
1308;SDS011;647;48.840;9.314;2022-12-07T04:10:49;68.82;;;11.98;;
1308;SDS011;647;48.840;9.314;2022-12-07T04:13:16;70.32;;;10.93;;
1308;SDS011;647;48.840;9.314;2022-12-07T04:15:43;67.15;;;11.55;;
1308;SDS011;647;48.840;9.314;2022-12-07T04:18:10;68.70;;;12.50;;
1308;SDS011;647;48.840;9.314;2022-12-07T04:20:38;71.25;;;12.88;;
1308;SDS011;647;48.840;9.314;2022-12-07T04:23:05;68.88;;;12.50;;
1308;SDS011;647;48.840;9.314;2022-12-07T04:25:32;72.95;;;13.80;;
1308;SDS011;647;48.840;9.314;2022-12-07T04:28:00;70.78;;;12.77;;
1308;SDS011;647;48.840;9.314;2022-12-07T04:30:27;73.90;;;13.50;;
1308;SDS011;647;48.840;9.314;2022-12-07T04:32:54;75.95;;;14.07;;
1308;SDS011;647;48.840;9.314;2022-12-07T04:35:21;73.25;;;12.50;;
1308;SDS011;647;48.840;9.314;2022-12-07T04:37:49;71.30;;;13.30;;
1308;SDS011;647;48.840;9.314;2022-12-07T04:40:16;70.15;;;13.55;;
1308;SDS011;647;48.840;9.314;2022-12-07T04:42:43;71.55;;;13.30;;
1308;SDS011;647;48.840;9.314;2022-12-07T04:45:11;71.72;;;13.23;;
1308;SDS011;647;48.840;9.314;2022-12-07T04:47:38;72.68;;;13.65;;
1308;SDS011;647;48.840;9.314;2022-12-07T04:50:06;74.28;;;13.82;;
1308;SDS011;647;48.840;9.314;2022-12-07T04:52:33;71.03;;;13.30;;
1308;SDS011;647;48.840;9.314;2022-12-07T04:55:00;73.22;;;13.60;;
1308;SDS011;647;48.840;9.314;2022-12-07T04:57:27;72.47;;;13.55;;
1308;SDS011;647;48.840;9.314;2022-12-07T04:59:55;73.95;;;14.32;;
1308;SDS011;647;48.840;9.314;2022-12-07T05:02:23;75.28;;;14.65;;
1308;SDS011;647;48.840;9.314;2022-12-07T05:04:50;73.35;;;14.02;;
1308;SDS011;647;48.840;9.314;2022-12-07T05:07:17;75.32;;;14.20;;
1308;SDS011;647;48.840;9.314;2022-12-07T05:09:44;70.85;;;13.50;;
1308;SDS011;647;48.840;9.314;2022-12-07T05:12:11;71.45;;;14.40;;
1308;SDS011;647;48.840;9.314;2022-12-07T05:14:39;75.70;;;12.15;;
1308;SDS011;647;48.840;9.314;2022-12-07T05:17:06;75.22;;;14.15;;
1308;SDS011;647;48.840;9.314;2022-12-07T05:19:34;72.75;;;14.45;;
1308;SDS011;647;48.840;9.314;2022-12-07T05:22:01;72.25;;;14.02;;
1308;SDS011;647;48.840;9.314;2022-12-07T05:24:28;72.22;;;12.75;;
1308;SDS011;647;48.840;9.314;2022-12-07T05:26:56;72.90;;;14.60;;
1308;SDS011;647;48.840;9.314;2022-12-07T05:29:23;69.85;;;12.27;;
1308;SDS011;647;48.840;9.314;2022-12-07T05:31:50;71.15;;;14.15;;
1308;SDS011;647;48.840;9.314;2022-12-07T05:34:17;70.72;;;13.48;;
1308;SDS011;647;48.840;9.314;2022-12-07T05:36:45;71.88;;;12.70;;
1308;SDS011;647;48.840;9.314;2022-12-07T05:39:12;73.82;;;14.30;;
1308;SDS011;647;48.840;9.314;2022-12-07T05:41:40;70.03;;;13.20;;
1308;SDS011;647;48.840;9.314;2022-12-07T05:44:24;71.40;;;13.05;;
1308;SDS011;647;48.840;9.314;2022-12-07T05:46:52;72.65;;;13.55;;
1308;SDS011;647;48.840;9.314;2022-12-07T05:49:19;75.78;;;14.00;;
1308;SDS011;647;48.840;9.314;2022-12-07T05:51:47;70.28;;;13.35;;
1308;SDS011;647;48.840;9.314;2022-12-07T05:54:14;71.55;;;12.90;;
1308;SDS011;647;48.840;9.314;2022-12-07T05:56:41;72.13;;;14.85;;
1308;SDS011;647;48.840;9.314;2022-12-07T05:59:08;76.10;;;15.38;;
1308;SDS011;647;48.840;9.314;2022-12-07T06:01:53;70.10;;;12.73;;
1308;SDS011;647;48.840;9.314;2022-12-07T06:04:20;74.57;;;14.68;;
1308;SDS011;647;48.840;9.314;2022-12-07T06:06:49;72.07;;;14.00;;
1308;SDS011;647;48.840;9.314;2022-12-07T06:09:16;72.90;;;13.63;;
1308;SDS011;647;48.840;9.314;2022-12-07T06:11:44;72.70;;;14.13;;
1308;SDS011;647;48.840;9.314;2022-12-07T06:14:29;78.43;;;13.32;;
1308;SDS011;647;48.840;9.314;2022-12-07T06:16:56;72.20;;;13.70;;
1308;SDS011;647;48.840;9.314;2022-12-07T06:19:23;72.68;;;14.77;;
1308;SDS011;647;48.840;9.314;2022-12-07T06:21:52;71.32;;;13.32;;
1308;SDS011;647;48.840;9.314;2022-12-07T06:24:19;76.80;;;13.88;;
1308;SDS011;647;48.840;9.314;2022-12-07T06:26:46;70.75;;;13.23;;
1308;SDS011;647;48.840;9.314;2022-12-07T06:29:13;73.60;;;13.80;;
1308;SDS011;647;48.840;9.314;2022-12-07T06:31:41;77.43;;;15.57;;
1308;SDS011;647;48.840;9.314;2022-12-07T06:34:09;71.80;;;13.30;;
1308;SDS011;647;48.840;9.314;2022-12-07T06:36:36;71.50;;;12.93;;
1308;SDS011;647;48.840;9.314;2022-12-07T06:39:05;76.57;;;15.30;;
1308;SDS011;647;48.840;9.314;2022-12-07T06:41:34;73.60;;;14.82;;
1308;SDS011;647;48.840;9.314;2022-12-07T06:44:01;77.00;;;14.77;;
1308;SDS011;647;48.840;9.314;2022-12-07T06:46:28;75.65;;;16.52;;
1308;SDS011;647;48.840;9.314;2022-12-07T06:48:55;73.20;;;14.73;;
1308;SDS011;647;48.840;9.314;2022-12-07T06:51:22;73.78;;;14.60;;
1308;SDS011;647;48.840;9.314;2022-12-07T06:53:49;72.65;;;14.05;;
1308;SDS011;647;48.840;9.314;2022-12-07T06:56:18;72.50;;;15.15;;
1308;SDS011;647;48.840;9.314;2022-12-07T06:58:45;72.57;;;14.18;;
1308;SDS011;647;48.840;9.314;2022-12-07T07:01:12;76.97;;;16.45;;
1308;SDS011;647;48.840;9.314;2022-12-07T07:03:40;75.82;;;16.13;;
1308;SDS011;647;48.840;9.314;2022-12-07T07:06:07;74.22;;;15.27;;
1308;SDS011;647;48.840;9.314;2022-12-07T07:08:35;73.13;;;15.15;;
1308;SDS011;647;48.840;9.314;2022-12-07T07:11:02;76.40;;;16.08;;
1308;SDS011;647;48.840;9.314;2022-12-07T07:13:31;77.43;;;16.15;;
1308;SDS011;647;48.840;9.314;2022-12-07T07:15:58;77.38;;;16.60;;
1308;SDS011;647;48.840;9.314;2022-12-07T07:18:25;75.63;;;15.93;;
1308;SDS011;647;48.840;9.314;2022-12-07T07:20:53;73.15;;;14.50;;
1308;SDS011;647;48.840;9.314;2022-12-07T07:23:20;76.85;;;16.77;;
1308;SDS011;647;48.840;9.314;2022-12-07T07:25:47;73.03;;;14.93;;
1308;SDS011;647;48.840;9.314;2022-12-07T07:28:15;75.80;;;17.00;;
1308;SDS011;647;48.840;9.314;2022-12-07T07:30:43;79.28;;;18.23;;
1308;SDS011;647;48.840;9.314;2022-12-07T07:33:11;73.75;;;15.25;;
1308;SDS011;647;48.840;9.314;2022-12-07T07:35:38;75.60;;;16.58;;
1308;SDS011;647;48.840;9.314;2022-12-07T07:38:05;79.20;;;15.95;;
1308;SDS011;647;48.840;9.314;2022-12-07T07:40:32;79.68;;;16.52;;
1308;SDS011;647;48.840;9.314;2022-12-07T07:43:00;79.05;;;15.10;;
1308;SDS011;647;48.840;9.314;2022-12-07T07:45:27;72.82;;;14.32;;
1308;SDS011;647;48.840;9.314;2022-12-07T07:47:55;75.45;;;14.75;;
1308;SDS011;647;48.840;9.314;2022-12-07T07:50:22;77.80;;;15.93;;
1308;SDS011;647;48.840;9.314;2022-12-07T07:52:49;78.55;;;16.25;;
1308;SDS011;647;48.840;9.314;2022-12-07T07:55:17;77.03;;;15.90;;
1308;SDS011;647;48.840;9.314;2022-12-07T07:57:44;77.40;;;16.45;;
1308;SDS011;647;48.840;9.314;2022-12-07T08:00:12;75.95;;;14.30;;
1308;SDS011;647;48.840;9.314;2022-12-07T08:02:39;73.53;;;15.43;;
1308;SDS011;647;48.840;9.314;2022-12-07T08:05:09;76.22;;;16.25;;
1308;SDS011;647;48.840;9.314;2022-12-07T08:07:36;74.00;;;15.23;;
1308;SDS011;647;48.840;9.314;2022-12-07T08:10:04;79.00;;;18.20;;
1308;SDS011;647;48.840;9.314;2022-12-07T08:12:34;78.10;;;16.48;;
1308;SDS011;647;48.840;9.314;2022-12-07T08:15:02;76.03;;;17.15;;
1308;SDS011;647;48.840;9.314;2022-12-07T08:17:29;74.80;;;15.77;;
1308;SDS011;647;48.840;9.314;2022-12-07T08:19:56;74.60;;;14.60;;
1308;SDS011;647;48.840;9.314;2022-12-07T08:22:24;72.25;;;15.40;;
1308;SDS011;647;48.840;9.314;2022-12-07T08:24:51;70.75;;;13.88;;
1308;SDS011;647;48.840;9.314;2022-12-07T08:27:19;74.05;;;14.48;;
1308;SDS011;647;48.840;9.314;2022-12-07T08:29:48;74.60;;;14.13;;
1308;SDS011;647;48.840;9.314;2022-12-07T08:32:15;71.65;;;12.52;;
1308;SDS011;647;48.840;9.314;2022-12-07T08:34:43;70.70;;;13.73;;
1308;SDS011;647;48.840;9.314;2022-12-07T08:37:10;72.35;;;12.70;;
1308;SDS011;647;48.840;9.314;2022-12-07T08:39:38;70.93;;;13.55;;
1308;SDS011;647;48.840;9.314;2022-12-07T08:42:05;72.82;;;13.57;;
1308;SDS011;647;48.840;9.314;2022-12-07T08:44:36;73.00;;;13.25;;
1308;SDS011;647;48.840;9.314;2022-12-07T08:47:05;73.32;;;13.73;;
1308;SDS011;647;48.840;9.314;2022-12-07T08:49:34;68.63;;;13.27;;
1308;SDS011;647;48.840;9.314;2022-12-07T08:52:04;75.70;;;13.60;;
1308;SDS011;647;48.840;9.314;2022-12-07T08:54:31;70.85;;;12.75;;
1308;SDS011;647;48.840;9.314;2022-12-07T08:57:01;67.60;;;10.52;;
1308;SDS011;647;48.840;9.314;2022-12-07T08:59:29;69.72;;;11.25;;
1308;SDS011;647;48.840;9.314;2022-12-07T09:01:57;68.22;;;10.75;;
1308;SDS011;647;48.840;9.314;2022-12-07T09:04:24;68.00;;;10.95;;
1308;SDS011;647;48.840;9.314;2022-12-07T09:06:51;70.22;;;10.48;;
1308;SDS011;647;48.840;9.314;2022-12-07T09:09:18;74.70;;;12.00;;
1308;SDS011;647;48.840;9.314;2022-12-07T09:11:45;68.50;;;11.55;;
1308;SDS011;647;48.840;9.314;2022-12-07T09:14:14;71.50;;;13.23;;
1308;SDS011;647;48.840;9.314;2022-12-07T09:16:42;67.93;;;11.50;;
1308;SDS011;647;48.840;9.314;2022-12-07T09:19:09;72.20;;;15.10;;
1308;SDS011;647;48.840;9.314;2022-12-07T09:21:36;83.00;;;16.43;;
1308;SDS011;647;48.840;9.314;2022-12-07T09:24:03;85.67;;;28.83;;
1308;SDS011;647;48.840;9.314;2022-12-07T09:26:31;73.53;;;15.77;;
1308;SDS011;647;48.840;9.314;2022-12-07T09:28:58;67.20;;;8.90;;
1308;SDS011;647;48.840;9.314;2022-12-07T09:31:26;63.20;;;7.80;;
1308;SDS011;647;48.840;9.314;2022-12-07T09:33:54;64.27;;;8.13;;
1308;SDS011;647;48.840;9.314;2022-12-07T09:36:21;64.57;;;7.97;;
1308;SDS011;647;48.840;9.314;2022-12-07T09:38:48;64.70;;;7.87;;
1308;SDS011;647;48.840;9.314;2022-12-07T09:41:16;66.50;;;8.47;;
1308;SDS011;647;48.840;9.314;2022-12-07T09:43:44;71.50;;;9.00;;
1308;SDS011;647;48.840;9.314;2022-12-07T09:46:13;62.03;;;6.90;;
1308;SDS011;647;48.840;9.314;2022-12-07T09:48:43;65.17;;;8.20;;
1308;SDS011;647;48.840;9.314;2022-12-07T09:51:13;64.00;;;6.43;;
1308;SDS011;647;48.840;9.314;2022-12-07T09:53:41;63.37;;;7.57;;
1308;SDS011;647;48.840;9.314;2022-12-07T09:56:09;61.77;;;6.60;;
1308;SDS011;647;48.840;9.314;2022-12-07T09:58:38;61.17;;;6.10;;
1308;SDS011;647;48.840;9.314;2022-12-07T10:01:09;63.57;;;7.00;;
1308;SDS011;647;48.840;9.314;2022-12-07T10:03:37;62.33;;;5.80;;
1308;SDS011;647;48.840;9.314;2022-12-07T10:06:07;64.20;;;6.30;;
1308;SDS011;647;48.840;9.314;2022-12-07T10:08:34;61.00;;;6.17;;
1308;SDS011;647;48.840;9.314;2022-12-07T10:11:01;62.70;;;6.20;;
1308;SDS011;647;48.840;9.314;2022-12-07T10:13:34;62.53;;;6.83;;
1308;SDS011;647;48.840;9.314;2022-12-07T10:16:01;60.87;;;5.63;;
1308;SDS011;647;48.840;9.314;2022-12-07T10:18:29;61.97;;;6.40;;
1308;SDS011;647;48.840;9.314;2022-12-07T10:21:01;61.67;;;5.90;;
1308;SDS011;647;48.840;9.314;2022-12-07T10:23:30;61.00;;;5.60;;
1308;SDS011;647;48.840;9.314;2022-12-07T10:25:57;61.73;;;5.93;;
1308;SDS011;647;48.840;9.314;2022-12-07T10:28:27;60.40;;;5.43;;
1308;SDS011;647;48.840;9.314;2022-12-07T10:31:00;62.27;;;6.10;;
1308;SDS011;647;48.840;9.314;2022-12-07T10:33:31;60.70;;;5.83;;
1308;SDS011;647;48.840;9.314;2022-12-07T10:35:59;61.97;;;5.60;;
1308;SDS011;647;48.840;9.314;2022-12-07T10:38:27;61.77;;;5.40;;
1308;SDS011;647;48.840;9.314;2022-12-07T10:41:04;60.73;;;5.30;;
1308;SDS011;647;48.840;9.314;2022-12-07T10:43:32;59.60;;;5.20;;
1308;SDS011;647;48.840;9.314;2022-12-07T10:48:42;61.70;;;5.70;;
1308;SDS011;647;48.840;9.314;2022-12-07T10:51:15;61.90;;;5.90;;
1308;SDS011;647;48.840;9.314;2022-12-07T10:53:51;61.40;;;5.73;;
1308;SDS011;647;48.840;9.314;2022-12-07T10:56:38;61.87;;;6.20;;
1308;SDS011;647;48.840;9.314;2022-12-07T10:59:20;60.77;;;6.50;;
1308;SDS011;647;48.840;9.314;2022-12-07T11:01:53;61.30;;;5.57;;
1308;SDS011;647;48.840;9.314;2022-12-07T11:04:24;61.83;;;5.47;;
1308;SDS011;647;48.840;9.314;2022-12-07T11:06:57;60.87;;;5.43;;
1308;SDS011;647;48.840;9.314;2022-12-07T11:09:38;62.00;;;6.40;;
1308;SDS011;647;48.840;9.314;2022-12-07T11:12:11;62.70;;;6.43;;
1308;SDS011;647;48.840;9.314;2022-12-07T11:14:43;62.50;;;6.13;;
1308;SDS011;647;48.840;9.314;2022-12-07T11:17:12;62.93;;;6.30;;
1308;SDS011;647;48.840;9.314;2022-12-07T11:19:46;62.57;;;5.47;;
1308;SDS011;647;48.840;9.314;2022-12-07T11:22:17;62.40;;;6.33;;
1308;SDS011;647;48.840;9.314;2022-12-07T11:24:48;63.33;;;6.37;;
1308;SDS011;647;48.840;9.314;2022-12-07T11:27:21;61.70;;;6.40;;
1308;SDS011;647;48.840;9.314;2022-12-07T11:29:52;61.00;;;5.27;;
1308;SDS011;647;48.840;9.314;2022-12-07T11:32:26;60.97;;;5.87;;
1308;SDS011;647;48.840;9.314;2022-12-07T11:34:59;60.43;;;4.87;;
1308;SDS011;647;48.840;9.314;2022-12-07T11:37:30;62.80;;;5.30;;
1308;SDS011;647;48.840;9.314;2022-12-07T11:39:59;62.00;;;5.50;;
1308;SDS011;647;48.840;9.314;2022-12-07T11:42:29;61.37;;;5.70;;
1308;SDS011;647;48.840;9.314;2022-12-07T11:44:59;61.73;;;6.43;;
1308;SDS011;647;48.840;9.314;2022-12-07T11:47:28;61.27;;;6.20;;
1308;SDS011;647;48.840;9.314;2022-12-07T11:49:58;61.70;;;6.77;;
1308;SDS011;647;48.840;9.314;2022-12-07T11:52:32;62.90;;;6.33;;
1308;SDS011;647;48.840;9.314;2022-12-07T11:55:05;62.07;;;6.43;;
1308;SDS011;647;48.840;9.314;2022-12-07T11:57:44;63.23;;;6.30;;
1308;SDS011;647;48.840;9.314;2022-12-07T12:00:13;63.30;;;7.53;;
1308;SDS011;647;48.840;9.314;2022-12-07T12:02:43;62.90;;;7.03;;
1308;SDS011;647;48.840;9.314;2022-12-07T12:05:13;63.63;;;7.60;;
1308;SDS011;647;48.840;9.314;2022-12-07T12:07:42;63.43;;;8.10;;
1308;SDS011;647;48.840;9.314;2022-12-07T12:10:14;63.13;;;7.60;;
1308;SDS011;647;48.840;9.314;2022-12-07T12:12:48;64.47;;;8.30;;
1308;SDS011;647;48.840;9.314;2022-12-07T12:15:33;66.37;;;8.80;;
1308;SDS011;647;48.840;9.314;2022-12-07T12:18:09;64.27;;;8.23;;
1308;SDS011;647;48.840;9.314;2022-12-07T12:20:40;62.67;;;8.17;;
1308;SDS011;647;48.840;9.314;2022-12-07T12:23:09;68.23;;;10.80;;
1308;SDS011;647;48.840;9.314;2022-12-07T12:25:39;64.20;;;8.80;;
1308;SDS011;647;48.840;9.314;2022-12-07T12:28:15;65.90;;;9.80;;
1308;SDS011;647;48.840;9.314;2022-12-07T12:30:45;66.47;;;9.63;;
1308;SDS011;647;48.840;9.314;2022-12-07T12:33:13;68.67;;;9.37;;
1308;SDS011;647;48.840;9.314;2022-12-07T12:35:41;66.77;;;10.50;;
1308;SDS011;647;48.840;9.314;2022-12-07T12:40:58;64.80;;;9.47;;
1308;SDS011;647;48.840;9.314;2022-12-07T12:49:30;65.87;;;9.63;;
1308;SDS011;647;48.840;9.314;2022-12-07T12:51:59;65.30;;;9.17;;
1308;SDS011;647;48.840;9.314;2022-12-07T12:54:28;69.07;;;11.35;;
1308;SDS011;647;48.840;9.314;2022-12-07T12:56:58;64.67;;;8.60;;
1308;SDS011;647;48.840;9.314;2022-12-07T12:59:27;64.27;;;8.77;;
1308;SDS011;647;48.840;9.314;2022-12-07T13:01:56;63.57;;;8.70;;
1308;SDS011;647;48.840;9.314;2022-12-07T13:04:38;65.67;;;8.93;;
1308;SDS011;647;48.840;9.314;2022-12-07T13:07:12;64.20;;;8.60;;
1308;SDS011;647;48.840;9.314;2022-12-07T13:09:42;68.10;;;9.53;;
1308;SDS011;647;48.840;9.314;2022-12-07T13:12:11;71.47;;;8.77;;
1308;SDS011;647;48.840;9.314;2022-12-07T13:17:57;63.30;;;8.57;;
1308;SDS011;647;48.840;9.314;2022-12-07T13:20:44;65.80;;;9.00;;
1308;SDS011;647;48.840;9.314;2022-12-07T13:23:12;63.47;;;8.70;;
1308;SDS011;647;48.840;9.314;2022-12-07T13:25:42;64.90;;;7.90;;
1308;SDS011;647;48.840;9.314;2022-12-07T13:28:14;65.20;;;9.63;;
1308;SDS011;647;48.840;9.314;2022-12-07T13:30:44;66.07;;;9.07;;
1308;SDS011;647;48.840;9.314;2022-12-07T13:33:23;65.13;;;9.10;;
1308;SDS011;647;48.840;9.314;2022-12-07T13:35:54;66.13;;;9.20;;
1308;SDS011;647;48.840;9.314;2022-12-07T13:38:25;64.10;;;9.63;;
1308;SDS011;647;48.840;9.314;2022-12-07T13:41:04;64.60;;;8.60;;
1308;SDS011;647;48.840;9.314;2022-12-07T13:43:41;66.50;;;10.00;;
1308;SDS011;647;48.840;9.314;2022-12-07T13:46:09;67.27;;;10.27;;
1308;SDS011;647;48.840;9.314;2022-12-07T13:48:43;67.20;;;10.07;;
1308;SDS011;647;48.840;9.314;2022-12-07T13:51:16;64.43;;;9.40;;
1308;SDS011;647;48.840;9.314;2022-12-07T13:53:45;64.90;;;9.30;;
1308;SDS011;647;48.840;9.314;2022-12-07T13:56:13;66.17;;;9.90;;
1308;SDS011;647;48.840;9.314;2022-12-07T13:58:40;67.77;;;10.93;;
1308;SDS011;647;48.840;9.314;2022-12-07T14:01:08;65.80;;;10.60;;
1308;SDS011;647;48.840;9.314;2022-12-07T14:03:35;64.70;;;9.43;;
1308;SDS011;647;48.840;9.314;2022-12-07T14:06:04;66.10;;;10.10;;
1308;SDS011;647;48.840;9.314;2022-12-07T14:08:33;66.70;;;9.93;;
1308;SDS011;647;48.840;9.314;2022-12-07T14:11:00;67.82;;;10.40;;
1308;SDS011;647;48.840;9.314;2022-12-07T14:13:29;69.00;;;10.30;;
1308;SDS011;647;48.840;9.314;2022-12-07T14:15:57;69.00;;;8.77;;
1308;SDS011;647;48.840;9.314;2022-12-07T14:18:26;69.07;;;9.57;;
1308;SDS011;647;48.840;9.314;2022-12-07T14:21:04;68.45;;;10.75;;
1308;SDS011;647;48.840;9.314;2022-12-07T14:23:34;68.43;;;10.83;;
1308;SDS011;647;48.840;9.314;2022-12-07T14:26:06;68.67;;;10.20;;
1308;SDS011;647;48.840;9.314;2022-12-07T14:28:36;67.40;;;11.30;;
1308;SDS011;647;48.840;9.314;2022-12-07T14:31:07;66.05;;;10.60;;
1308;SDS011;647;48.840;9.314;2022-12-07T14:33:37;68.37;;;11.10;;
1308;SDS011;647;48.840;9.314;2022-12-07T14:36:05;69.10;;;10.97;;
1308;SDS011;647;48.840;9.314;2022-12-07T14:38:32;67.77;;;10.23;;
1308;SDS011;647;48.840;9.314;2022-12-07T14:41:00;68.70;;;11.93;;
1308;SDS011;647;48.840;9.314;2022-12-07T14:43:42;67.47;;;11.40;;
1308;SDS011;647;48.840;9.314;2022-12-07T14:46:09;68.97;;;12.03;;
1308;SDS011;647;48.840;9.314;2022-12-07T14:48:36;70.93;;;13.33;;
1308;SDS011;647;48.840;9.314;2022-12-07T14:51:03;70.90;;;13.43;;
1308;SDS011;647;48.840;9.314;2022-12-07T14:53:31;67.40;;;11.07;;
1308;SDS011;647;48.840;9.314;2022-12-07T14:56:02;71.63;;;11.60;;
1308;SDS011;647;48.840;9.314;2022-12-07T14:58:30;70.57;;;11.30;;
1308;SDS011;647;48.840;9.314;2022-12-07T15:00:58;68.67;;;11.30;;
1308;SDS011;647;48.840;9.314;2022-12-07T15:03:25;68.57;;;10.43;;
1308;SDS011;647;48.840;9.314;2022-12-07T15:05:52;68.87;;;12.00;;
1308;SDS011;647;48.840;9.314;2022-12-07T15:08:20;71.80;;;11.80;;
1308;SDS011;647;48.840;9.314;2022-12-07T15:10:47;69.77;;;12.10;;
1308;SDS011;647;48.840;9.314;2022-12-07T15:13:15;70.23;;;12.67;;
1308;SDS011;647;48.840;9.314;2022-12-07T15:16:00;69.17;;;12.80;;
1308;SDS011;647;48.840;9.314;2022-12-07T15:18:27;68.47;;;11.95;;
1308;SDS011;647;48.840;9.314;2022-12-07T15:20:54;70.07;;;12.02;;
1308;SDS011;647;48.840;9.314;2022-12-07T15:23:21;69.07;;;12.47;;
1308;SDS011;647;48.840;9.314;2022-12-07T15:25:48;70.03;;;11.97;;
1308;SDS011;647;48.840;9.314;2022-12-07T15:28:17;69.37;;;12.60;;
1308;SDS011;647;48.840;9.314;2022-12-07T15:30:44;70.60;;;12.27;;
1308;SDS011;647;48.840;9.314;2022-12-07T15:33:12;69.53;;;10.77;;
1308;SDS011;647;48.840;9.314;2022-12-07T15:35:39;66.60;;;9.80;;